Terminal Aerodrome Forecast
Issued by NWS Buffalo, NY

Home | Current Version | Previous Version | Text Only | Print | Product List | Glossary On
Versions: 1 2 3 4 5 6 7 8 9 10 11 12 13 14 15 16 17 18 19 20 21 22 23 24 25 26 27
000
FTUS41 KBUF 070903 AAA
TAFROC
TAF AMD
KROC 070903Z 0709/0806 19008KT 6SM -DZ OVC015
     FM071300 26013G19KT P6SM BKN050
     FM072200 24011KT P6SM BKN025=

USA.gov is the U.S. government's official web portal to all federal, state and local government web resources and services.